Time;durP1;ratioP1;P1;durP2;ratioP2;P2;SDS_P1;SDS_P2;PMS_P1;PMS_P2;Temp;Humidity;BMP_temperature;BMP_pressure;BME280_temperature;BME280_humidity;BME280_pressure;Samples;Min_cycle;Max_cycle;Signal;HPM_P1;HPM_P2
2021/08/16 00:00:15;;;;;;;;;9.25;5.00;;;;;21.89;57.09;101095.13;5059094;28;45677;-59
2021/08/16 00:02:41;;;;;;;;;5.25;5.00;;;;;21.86;57.19;101098.00;5058644;28;45356;-58
2021/08/16 00:05:07;;;;;;;;;4.25;3.50;;;;;21.82;56.46;101091.19;5059259;28;45430;-59
2021/08/16 00:07:32;;;;;;;;;5.25;4.75;;;;;21.80;55.94;101099.25;5054337;28;46635;-59
2021/08/16 00:09:58;;;;;;;;;6.00;5.00;;;;;21.80;55.81;101101.88;5057777;28;45259;-59
2021/08/16 00:12:23;;;;;;;;;4.00;4.00;;;;;21.79;55.01;101094.06;5059209;28;45328;-58
2021/08/16 00:14:49;;;;;;;;;6.25;4.25;;;;;21.75;55.10;101092.56;5058822;28;45283;-59
2021/08/16 00:17:14;;;;;;;;;5.00;5.00;;;;;21.75;54.65;101092.56;5058085;28;46357;-59
2021/08/16 00:19:40;;;;;;;;;6.25;2.00;;;;;21.75;54.07;101092.56;5058813;28;45297;-61
2021/08/16 00:22:06;;;;;;;;;5.50;2.50;;;;;21.72;54.10;101090.16;5059321;28;45294;-61
2021/08/16 00:24:31;;;;;;;;;4.50;3.75;;;;;21.69;54.07;101088.56;5058997;28;45419;-61
2021/08/16 00:26:59;;;;;;;;;5.00;3.00;;;;;21.62;54.39;101089.06;5054160;28;45385;-61
2021/08/16 00:29:24;;;;;;;;;2.50;2.25;;;;;21.55;54.26;101081.56;5051520;28;45406;-60
2021/08/16 00:31:50;;;;;;;;;4.75;3.25;;;;;21.49;54.31;101084.63;5049203;28;45423;-61
2021/08/16 00:34:15;;;;;;;;;5.00;3.50;;;;;21.36;54.94;101073.16;5053843;28;46111;-61
2021/08/16 00:36:40;;;;;;;;;3.00;3.00;;;;;21.33;55.36;101083.13;5053767;28;45473;-59
2021/08/16 00:39:06;;;;;;;;;4.00;3.00;;;;;21.29;55.82;101082.47;5054118;28;45464;-58
2021/08/16 00:41:33;;;;;;;;;5.00;2.25;;;;;21.24;55.54;101081.94;5053318;28;45495;-58
2021/08/16 00:43:59;;;;;;;;;5.00;3.50;;;;;21.20;55.75;101081.25;5053653;28;45305;-58
2021/08/16 00:46:25;;;;;;;;;6.50;3.00;;;;;21.20;55.61;101077.75;5055286;28;46074;-58
2021/08/16 00:48:50;;;;;;;;;4.00;4.00;;;;;21.22;55.20;101078.50;5054776;28;45418;-58
2021/08/16 00:51:15;;;;;;;;;1.00;1.00;;;;;21.17;55.82;101078.81;5052865;28;45382;-58
2021/08/16 00:53:41;;;;;;;;;2.75;2.75;;;;;21.09;55.42;101072.34;5055150;28;45457;-58
2021/08/16 00:56:09;;;;;;;;;2.50;2.25;;;;;21.01;56.06;101079.91;5052372;28;46172;-58
2021/08/16 00:58:35;;;;;;;;;6.00;3.50;;;;;20.98;55.95;101073.03;5055249;28;45404;-61
2021/08/16 01:01:02;;;;;;;;;4.50;3.25;;;;;20.96;56.70;101075.78;5061698;28;45453;-60
2021/08/16 01:03:28;;;;;;;;;2.75;2.75;;;;;20.96;56.70;101070.50;5060196;28;45407;-61
2021/08/16 01:05:54;;;;;;;;;3.75;2.00;;;;;21.00;56.18;101065.00;5058798;28;45455;-60
2021/08/16 01:08:20;;;;;;;;;3.50;3.50;;;;;21.00;56.16;101067.66;5052366;28;45675;-60
2021/08/16 01:10:46;;;;;;;;;3.75;2.50;;;;;21.02;55.98;101068.41;5053562;28;45510;-60
2021/08/16 01:13:12;;;;;;;;;3.00;3.00;;;;;21.03;55.94;101064.84;5052728;28;45297;-60
2021/08/16 01:15:37;;;;;;;;;3.00;2.25;;;;;21.03;55.92;101065.69;5049182;28;46344;-59
2021/08/16 01:18:03;;;;;;;;;2.50;2.00;;;;;21.06;55.63;101070.75;5051202;28;45267;-59
2021/08/16 01:20:28;;;;;;;;;4.25;3.00;;;;;21.09;55.95;101069.69;5051458;28;45328;-59
2021/08/16 01:22:56;;;;;;;;;3.75;3.75;;;;;21.13;55.10;101076.47;5051927;28;45245;-61
2021/08/16 01:25:21;;;;;;;;;2.00;2.00;;;;;21.15;55.42;101072.78;5050557;28;46617;-60
2021/08/16 01:27:47;;;;;;;;;6.00;2.00;;;;;21.15;55.38;101074.56;5053512;28;45470;-61
2021/08/16 01:30:15;;;;;;;;;4.00;2.00;;;;;21.12;55.36;101075.63;5049553;28;45329;-61
2021/08/16 01:32:41;;;;;;;;;4.00;4.00;;;;;21.06;55.34;101077.84;5050745;28;45368;-60
2021/08/16 01:35:07;;;;;;;;;7.75;3.00;;;;;21.04;55.47;101071.81;5052072;28;45798;-61
2021/08/16 01:37:32;;;;;;;;;2.50;2.50;;;;;21.03;54.88;101080.69;5053906;28;45307;-60
2021/08/16 01:39:58;;;;;;;;;1.00;1.00;;;;;21.05;55.90;101076.16;5050597;28;45296;-60
2021/08/16 01:42:23;;;;;;;;;5.50;2.75;;;;;21.07;54.98;101072.44;5050334;28;45393;-60
2021/08/16 01:44:48;;;;;;;;;2.00;2.00;;;;;21.11;55.16;101073.09;5051803;28;45473;-59
2021/08/16 01:47:14;;;;;;;;;5.00;2.25;;;;;21.09;55.03;101080.28;5054908;28;45525;-59
2021/08/16 01:49:39;;;;;;;;;4.00;2.75;;;;;21.02;55.10;101079.81;5051004;28;45418;-59
2021/08/16 01:52:05;;;;;;;;;2.00;2.00;;;;;20.98;55.14;101085.41;5053264;28;45386;-59
2021/08/16 01:54:30;;;;;;;;;2.75;2.75;;;;;20.83;55.93;101079.34;5053220;28;46100;-59
2021/08/16 01:56:55;;;;;;;;;4.25;3.00;;;;;20.80;56.15;101077.72;5058744;28;45413;-60
2021/08/16 01:59:21;;;;;;;;;2.50;2.50;;;;;20.76;56.20;101081.50;5061628;28;45414;-59
2021/08/16 02:01:46;;;;;;;;;3.00;3.00;;;;;20.78;56.08;101082.25;5060632;28;45572;-60
2021/08/16 02:04:12;;;;;;;;;3.50;2.75;;;;;20.81;56.10;101076.78;5056891;28;46318;-60
2021/08/16 02:06:37;;;;;;;;;5.25;4.25;;;;;20.86;56.24;101081.78;5051557;28;45265;-60
2021/08/16 02:09:03;;;;;;;;;3.25;3.00;;;;;20.91;56.22;101079.69;5050643;28;45822;-59
2021/08/16 02:11:28;;;;;;;;;3.00;2.75;;;;;20.98;55.78;101077.47;5055730;28;46331;-60
2021/08/16 02:13:54;;;;;;;;;2.00;1.75;;;;;21.01;55.72;101077.28;5052716;28;45500;-59
2021/08/16 02:16:19;;;;;;;;;2.00;1.50;;;;;21.01;55.77;101077.28;5051023;28;45468;-59
2021/08/16 02:18:44;;;;;;;;;4.50;3.00;;;;;20.98;56.03;101074.84;5050460;28;45506;-59
2021/08/16 02:21:10;;;;;;;;;2.00;2.00;;;;;20.95;56.46;101079.38;5052959;28;45383;-59
2021/08/16 02:23:35;;;;;;;;;3.75;2.00;;;;;20.87;56.77;101084.31;5050398;28;46192;-59
2021/08/16 02:26:00;;;;;;;;;4.00;1.75;;;;;20.79;56.79;101072.53;5052564;28;45412;-59
2021/08/16 02:28:26;;;;;;;;;5.75;3.75;;;;;20.71;56.74;101057.19;5049718;28;45416;-58
2021/08/16 02:30:52;;;;;;;;;4.00;2.25;;;;;20.76;56.97;101073.59;5052581;28;45448;-58
2021/08/16 02:33:17;;;;;;;;;3.75;3.75;;;;;20.79;57.24;101081.31;5048473;28;46995;-59
2021/08/16 02:35:43;;;;;;;;;1.50;1.50;;;;;20.76;57.23;101070.94;5054279;28;45446;-60
2021/08/16 02:38:10;;;;;;;;;4.75;4.00;;;;;20.77;57.18;101074.44;5048680;28;45264;-60
2021/08/16 02:40:36;;;;;;;;;3.25;2.00;;;;;20.72;57.49;101077.38;5052337;28;45513;-60
2021/08/16 02:43:02;;;;;;;;;3.50;2.00;;;;;20.71;57.66;101075.69;5049088;28;46676;-60
2021/08/16 02:45:27;;;;;;;;;3.50;2.00;;;;;20.68;57.73;101070.59;5053019;28;45875;-60
2021/08/16 02:47:53;;;;;;;;;2.75;2.75;;;;;20.68;57.94;101070.59;5051191;28;45357;-60
2021/08/16 02:50:19;;;;;;;;;4.00;3.00;;;;;20.71;57.52;101078.34;5051315;28;45368;-59
2021/08/16 02:52:44;;;;;;;;;2.00;2.00;;;;;20.72;58.12;101077.38;5050261;28;45430;-60
2021/08/16 02:55:10;;;;;;;;;6.50;3.00;;;;;20.68;58.40;101067.13;5052233;28;45361;-59
2021/08/16 02:57:37;;;;;;;;;3.25;1.75;;;;;20.67;58.26;101068.06;5050336;28;45326;-59
2021/08/16 03:00:03;;;;;;;;;4.00;3.75;;;;;20.64;58.60;101083.16;5050029;28;45433;-59
2021/08/16 03:02:29;;;;;;;;;4.75;4.00;;;;;20.64;58.35;101072.59;5051412;28;46266;-59
2021/08/16 03:04:54;;;;;;;;;1.75;1.75;;;;;20.66;58.03;101077.78;5050289;28;45196;-60
2021/08/16 03:07:19;;;;;;;;;3.00;3.00;;;;;20.59;58.48;101077.31;5064692;28;45284;-60
2021/08/16 03:09:45;;;;;;;;;3.75;2.00;;;;;20.51;58.45;101071.69;5064118;28;45552;-60
2021/08/16 03:12:11;;;;;;;;;4.75;1.25;;;;;20.52;58.16;101077.81;5051930;28;46425;-60
2021/08/16 03:14:36;;;;;;;;;2.50;2.50;;;;;20.55;58.81;101075.81;5052333;28;45306;-60
2021/08/16 03:17:02;;;;;;;;;2.75;2.75;;;;;20.58;58.26;101077.41;5056912;28;45395;-60
2021/08/16 03:19:27;;;;;;;;;2.75;2.00;;;;;20.59;58.46;101076.47;5050361;28;45626;-60
2021/08/16 03:21:53;;;;;;;;;2.75;2.00;;;;;20.54;58.95;101075.91;5049029;28;45423;-59
2021/08/16 03:24:18;;;;;;;;;2.00;2.00;;;;;20.55;59.24;101075.81;5049309;28;45312;-59
2021/08/16 03:26:44;;;;;;;;;2.00;2.00;;;;;20.53;58.51;101076.88;5050028;28;45390;-60
2021/08/16 03:29:10;;;;;;;;;3.00;2.00;;;;;20.48;59.26;101058.69;5056152;28;45331;-59
2021/08/16 03:31:35;;;;;;;;;1.50;1.50;;;;;20.49;59.19;101067.44;5058740;28;46722;-64
2021/08/16 03:34:01;;;;;;;;;5.50;3.75;;;;;20.47;59.36;101074.63;5058353;28;45267;-64
2021/08/16 03:36:26;;;;;;;;;4.50;2.00;;;;;20.41;60.25;101075.00;5059710;28;45315;-64
2021/08/16 03:38:51;;;;;;;;;3.00;1.00;;;;;20.34;60.59;101074.50;5058189;28;45490;-57
2021/08/16 03:41:17;;;;;;;;;6.25;4.00;;;;;20.36;60.55;101068.19;5058987;28;45398;-57
2021/08/16 03:43:42;;;;;;;;;3.25;2.75;;;;;20.35;60.48;101063.84;5058621;28;45431;-58
2021/08/16 03:46:07;;;;;;;;;5.00;3.00;;;;;20.36;60.32;101065.53;5058607;28;45291;-58
2021/08/16 03:48:33;;;;;;;;;5.75;4.50;;;;;20.39;60.38;101064.50;5059354;28;45252;-57
2021/08/16 03:50:58;;;;;;;;;7.50;2.75;;;;;20.41;60.92;101069.72;5060240;28;45436;-58
2021/08/16 03:53:23;;;;;;;;;4.75;4.75;;;;;20.32;61.55;101064.03;5058994;28;45203;-57
2021/08/16 03:55:49;;;;;;;;;3.75;3.75;;;;;20.29;61.95;101058.97;5059615;28;45394;-57
2021/08/16 03:58:14;;;;;;;;;3.50;2.75;;;;;20.22;61.94;101059.41;5059124;28;45278;-58
2021/08/16 04:00:40;;;;;;;;;6.50;3.75;;;;;20.15;62.16;101066.88;5059719;28;45286;-58
2021/08/16 04:03:05;;;;;;;;;4.25;3.00;;;;;20.14;62.16;101070.47;5060401;28;45592;-58
2021/08/16 04:05:31;;;;;;;;;2.75;2.75;;;;;20.12;63.10;101069.72;5070982;28;45761;-63
2021/08/16 04:07:56;;;;;;;;;4.00;3.75;;;;;20.09;63.25;101067.28;5061971;28;45201;-68
2021/08/16 04:10:23;;;;;;;;;6.50;5.25;;;;;20.12;62.69;101064.44;5062637;28;46265;-61
2021/08/16 04:12:49;;;;;;;;;3.00;2.25;;;;;20.07;63.29;101063.03;5062461;28;45337;-61
2021/08/16 04:15:17;;;;;;;;;4.00;3.75;;;;;20.03;63.22;101062.38;5062439;28;45365;-62
2021/08/16 04:17:43;;;;;;;;;6.75;2.50;;;;;20.01;64.26;101070.38;5060720;28;45463;-63
2021/08/16 04:20:10;;;;;;;;;2.75;2.75;;;;;19.95;64.09;101065.47;5060055;28;45627;-63
2021/08/16 04:22:35;;;;;;;;;6.75;3.25;;;;;19.86;64.37;101070.47;5060078;28;45738;-63
2021/08/16 04:25:01;;;;;;;;;2.75;2.75;;;;;19.79;64.44;101074.41;5060234;28;45575;-63
2021/08/16 04:27:27;;;;;;;;;5.00;2.25;;;;;19.77;64.54;101076.28;5059772;28;45342;-63
2021/08/16 04:29:52;;;;;;;;;3.75;3.00;;;;;19.81;64.78;101077.81;5059891;28;45915;-64
2021/08/16 04:32:18;;;;;;;;;4.75;2.00;;;;;19.83;64.53;101065.41;5059865;28;45405;-63
2021/08/16 04:34:44;;;;;;;;;4.50;3.25;;;;;19.87;64.29;101069.53;5060379;28;45378;-63
2021/08/16 04:37:09;;;;;;;;;5.50;3.25;;;;;19.83;64.34;101073.31;5061122;28;45663;-60
2021/08/16 04:39:34;;;;;;;;;4.25;1.75;;;;;19.75;64.67;101077.25;5062134;28;45366;-59
2021/08/16 04:41:59;;;;;;;;;4.00;3.00;;;;;19.70;64.59;101081.94;5059446;28;45615;-58
2021/08/16 04:44:25;;;;;;;;;6.75;4.25;;;;;19.70;65.31;101086.38;5059563;28;45351;-58
2021/08/16 04:46:50;;;;;;;;;3.75;3.50;;;;;19.66;65.36;101085.72;5059086;28;45373;-59
2021/08/16 04:49:16;;;;;;;;;4.75;4.75;;;;;19.61;65.53;101090.41;5059494;28;45390;-59
2021/08/16 04:51:41;;;;;;;;;4.00;1.50;;;;;19.59;65.92;101088.78;5059416;28;45425;-59
2021/08/16 04:54:06;;;;;;;;;4.75;3.00;;;;;19.58;65.32;101084.47;5059543;28;45425;-59
2021/08/16 04:56:32;;;;;;;;;2.50;2.50;;;;;19.56;65.57;101087.19;5061301;28;45353;-61
2021/08/16 04:58:59;;;;;;;;;3.00;1.25;;;;;19.56;65.80;101089.81;5061550;28;45882;-58
2021/08/16 05:01:25;;;;;;;;;4.50;3.75;;;;;19.54;65.69;101081.16;5061530;28;45664;-59
2021/08/16 05:03:50;;;;;;;;;3.75;2.00;;;;;19.53;65.51;101092.63;5062152;28;45263;-59
2021/08/16 05:06:16;;;;;;;;;3.00;1.75;;;;;19.58;65.36;101093.22;5061718;28;45521;-59
2021/08/16 05:08:41;;;;;;;;;2.75;2.75;;;;;19.59;65.04;101091.44;5061459;28;46048;-59
2021/08/16 05:11:06;;;;;;;;;3.00;2.25;;;;;19.58;64.57;101085.31;5060841;28;45436;-59
2021/08/16 05:13:32;;;;;;;;;2.75;2.50;;;;;19.55;65.14;101088.13;5061082;28;45752;-59
2021/08/16 05:15:58;;;;;;;;;2.50;2.50;;;;;19.68;64.56;101094.38;5059985;28;45562;-59
2021/08/16 05:18:24;;;;;;;;;5.00;2.00;;;;;19.73;64.31;101097.59;5060256;28;46039;-59
2021/08/16 05:20:50;;;;;;;;;7.25;4.25;;;;;19.77;64.63;101097.41;5059910;28;45324;-59
2021/08/16 05:23:19;;;;;;;;;2.75;2.50;;;;;19.76;64.69;101093.91;5061039;28;45385;-59
2021/08/16 05:25:45;;;;;;;;;2.75;1.25;;;;;19.74;64.07;101104.56;5060138;28;45484;-59
2021/08/16 05:28:10;;;;;;;;;6.50;2.50;;;;;19.66;64.95;101106.81;5060623;28;46152;-59
2021/08/16 05:30:36;;;;;;;;;4.25;2.00;;;;;19.66;64.57;101105.97;5059845;28;45272;-59
2021/08/16 05:33:01;;;;;;;;;3.50;2.25;;;;;19.67;64.77;101108.50;5060929;28;45284;-59
2021/08/16 05:35:27;;;;;;;;;5.75;2.50;;;;;19.71;64.71;101111.81;5060524;28;45263;-59
2021/08/16 05:37:52;;;;;;;;;22.75;10.25;;;;;19.81;64.27;101110.28;5060439;28;46235;-59
2021/08/16 05:40:18;;;;;;;;;5.25;2.50;;;;;19.90;63.67;101114.19;5059773;28;45296;-59
2021/08/16 05:42:43;;;;;;;;;5.00;4.00;;;;;19.82;64.01;101111.16;5061322;28;45290;-59
2021/08/16 05:45:09;;;;;;;;;4.25;1.50;;;;;19.81;64.21;101109.44;5059582;28;45263;-59
2021/08/16 05:47:35;;;;;;;;;4.00;2.75;;;;;19.80;64.43;101121.78;5060918;28;45358;-59
2021/08/16 05:50:00;;;;;;;;;3.50;2.50;;;;;19.81;64.27;101122.63;5060860;28;45256;-59
2021/08/16 05:52:26;;;;;;;;;1.25;1.00;;;;;19.73;64.10;101131.88;5061114;28;45636;-60
2021/08/16 05:54:52;;;;;;;;;2.50;2.50;;;;;19.71;64.74;101125.84;5060450;28;45489;-60
2021/08/16 05:57:17;;;;;;;;;4.75;2.75;;;;;19.70;64.57;101129.41;5060502;28;46804;-60
2021/08/16 05:59:42;;;;;;;;;3.50;2.50;;;;;19.66;64.95;101127.06;5060994;28;45228;-60
2021/08/16 06:02:08;;;;;;;;;4.75;2.25;;;;;19.54;65.00;101130.41;5060830;28;45391;-60
2021/08/16 06:04:33;;;;;;;;;2.75;1.75;;;;;19.54;65.30;101130.41;5060606;28;45505;-60
2021/08/16 06:06:59;;;;;;;;;2.50;1.50;;;;;19.63;65.04;101136.00;5060603;28;45199;-60
2021/08/16 06:09:24;;;;;;;;;3.50;2.00;;;;;19.65;65.37;101136.75;5060268;28;45528;-60
2021/08/16 06:11:50;;;;;;;;;2.75;2.75;;;;;19.64;65.13;101127.16;5060436;28;45374;-60
2021/08/16 06:14:15;;;;;;;;;4.50;3.25;;;;;19.69;65.49;101137.41;5060950;28;45310;-60
2021/08/16 06:16:41;;;;;;;;;2.25;2.25;;;;;19.74;64.61;101135.34;5059978;28;46075;-61
2021/08/16 06:19:07;;;;;;;;;4.25;1.50;;;;;19.79;64.53;101145.63;5060312;28;45243;-61
2021/08/16 06:21:35;;;;;;;;;4.25;3.25;;;;;19.75;64.63;101143.16;5060921;28;45437;-61
2021/08/16 06:24:00;;;;;;;;;4.75;3.75;;;;;19.82;65.09;101153.34;5060509;28;45464;-61
2021/08/16 06:26:26;;;;;;;;;1.50;1.50;;;;;19.84;64.09;101131.25;5060649;28;45282;-61
2021/08/16 06:28:51;;;;;;;;;4.50;2.25;;;;;19.98;64.00;101143.59;5059985;28;45635;-60
2021/08/16 06:31:16;;;;;;;;;3.00;2.00;;;;;20.00;64.14;101142.53;5059443;28;45335;-59
2021/08/16 06:33:42;;;;;;;;;7.75;2.25;;;;;20.03;64.12;101149.44;5060113;28;45675;-60
2021/08/16 06:36:08;;;;;;;;;3.50;1.50;;;;;19.99;64.17;101145.28;5060269;28;45610;-60
2021/08/16 06:38:33;;;;;;;;;2.25;1.50;;;;;20.01;63.81;101152.16;5060423;28;45228;-59
2021/08/16 06:41:00;;;;;;;;;2.25;2.00;;;;;20.00;64.29;101154.88;5060343;28;45401;-60
2021/08/16 06:43:26;;;;;;;;;5.00;2.00;;;;;19.89;64.90;101152.91;5060035;28;45428;-60
2021/08/16 06:45:52;;;;;;;;;2.50;1.75;;;;;19.85;64.61;101158.47;5060121;28;45963;-60
2021/08/16 06:48:18;;;;;;;;;2.00;1.50;;;;;19.90;64.74;101166.94;5059964;28;45334;-60
2021/08/16 06:50:43;;;;;;;;;3.00;1.50;;;;;19.94;65.05;101155.25;5060193;28;45373;-60
2021/08/16 06:53:13;;;;;;;;;3.00;3.00;;;;;19.91;64.86;101155.44;5059402;28;45285;-60
2021/08/16 06:55:39;;;;;;;;;3.25;1.75;;;;;19.80;65.48;101161.34;5047430;28;46243;-60
2021/08/16 06:58:05;;;;;;;;;4.75;3.00;;;;;19.89;65.48;101154.69;5059696;28;45294;-60
2021/08/16 07:00:31;;;;;;;;;4.00;4.00;;;;;19.95;64.69;101163.09;5060165;28;45309;-60
2021/08/16 07:02:58;;;;;;;;;2.00;1.75;;;;;19.98;65.12;101170.81;5059682;28;45306;-60
2021/08/16 07:05:23;;;;;;;;;6.50;1.75;;;;;20.01;65.32;101165.34;5059888;28;46406;-60
2021/08/16 07:07:51;;;;;;;;;1.75;1.75;;;;;19.99;65.11;101161.94;5059444;28;45248;-60
2021/08/16 07:10:17;;;;;;;;;2.50;2.00;;;;;19.95;65.55;101171.00;5059844;28;45353;-60
2021/08/16 07:12:43;;;;;;;;;3.00;3.00;;;;;19.92;65.42;101171.19;5059593;28;45414;-60
2021/08/16 07:15:09;;;;;;;;;4.75;1.00;;;;;19.95;65.87;101180.69;5059478;28;46288;-60
2021/08/16 07:17:34;;;;;;;;;1.75;1.75;;;;;19.97;66.24;101174.38;5059204;28;45243;-60
2021/08/16 07:19:59;;;;;;;;;6.50;6.50;;;;;19.99;65.77;101182.22;5059668;28;45282;-60
2021/08/16 07:22:25;;;;;;;;;1.50;1.50;;;;;19.98;66.20;101180.50;5059652;28;45476;-60
2021/08/16 07:24:50;;;;;;;;;0.50;0.50;;;;;19.92;66.56;101180.88;5059538;28;46577;-60
2021/08/16 07:27:15;;;;;;;;;3.25;2.00;;;;;19.88;67.41;101176.75;5059385;28;45216;-60
2021/08/16 07:29:41;;;;;;;;;1.00;0.75;;;;;19.98;67.08;101185.78;5059452;28;46337;-60
2021/08/16 07:32:06;;;;;;;;;2.50;2.50;;;;;19.98;66.86;101167.31;5059654;28;45413;-60
2021/08/16 07:34:34;;;;;;;;;3.75;2.50;;;;;19.99;67.82;101183.06;5059680;28;45300;-59
2021/08/16 07:37:00;;;;;;;;;3.50;2.00;;;;;20.03;67.39;101183.75;5059176;28;45782;-60
2021/08/16 07:39:25;;;;;;;;;3.75;2.50;;;;;20.16;66.63;101184.69;5059735;28;45353;-60
2021/08/16 07:41:50;;;;;;;;;6.00;5.00;;;;;20.27;66.80;101190.19;5060193;28;45422;-60
2021/08/16 07:44:16;;;;;;;;;6.00;3.00;;;;;20.40;66.48;101197.34;5062819;28;46325;-60
2021/08/16 07:46:42;;;;;;;;;7.25;4.00;;;;;20.49;67.35;101202.09;5062476;28;45367;-60
2021/08/16 07:49:07;;;;;;;;;3.00;1.75;;;;;20.34;67.73;101204.69;5063061;28;45362;-60
2021/08/16 07:51:33;;;;;;;;;3.50;3.25;;;;;20.23;68.29;101201.03;5062906;28;45207;-60
2021/08/16 07:53:58;;;;;;;;;1.00;1.00;;;;;20.15;69.26;101211.19;5062669;28;46107;-60
2021/08/16 07:56:24;;;;;;;;;5.00;1.75;;;;;20.20;68.15;101188.84;5062666;28;45217;-59
2021/08/16 07:58:49;;;;;;;;;6.00;3.25;;;;;20.38;68.55;101196.59;5062453;28;45230;-60
2021/08/16 08:01:14;;;;;;;;;3.00;2.00;;;;;20.45;67.91;101190.88;5062543;28;45294;-60
2021/08/16 08:03:40;;;;;;;;;1.50;1.00;;;;;20.54;67.00;101189.47;5062935;28;45229;-60
2021/08/16 08:06:06;;;;;;;;;1.00;1.00;;;;;20.65;67.01;101197.56;5062603;28;45296;-60
2021/08/16 08:08:32;;;;;;;;;1.00;1.00;;;;;20.62;66.69;101203.03;5062776;28;45358;-60
2021/08/16 08:10:57;;;;;;;;;3.00;2.25;;;;;20.69;67.03;101193.78;5062249;28;45226;-61
2021/08/16 08:13:22;;;;;;;;;4.00;2.50;;;;;20.81;66.45;101198.28;5062017;28;45448;-62
2021/08/16 08:15:48;;;;;;;;;4.50;1.50;;;;;20.89;66.06;101193.38;5062092;28;45385;-59
2021/08/16 08:18:13;;;;;;;;;1.50;0.75;;;;;20.88;65.59;101198.78;5062606;28;45256;-56
2021/08/16 08:20:39;;;;;;;;;1.25;1.25;;;;;20.78;65.90;101201.13;5062311;28;45356;-57
2021/08/16 08:23:05;;;;;;;;;5.75;3.00;;;;;20.81;66.56;101208.00;5052009;28;46339;-57
2021/08/16 08:25:30;;;;;;;;;3.50;2.25;;;;;20.79;66.02;101208.09;5053327;28;45658;-57
2021/08/16 08:27:56;;;;;;;;;3.00;2.25;;;;;20.78;66.37;101211.69;5054610;28;45445;-58
2021/08/16 08:30:21;;;;;;;;;6.50;3.75;;;;;20.70;66.02;101221.06;5053244;28;45391;-57
2021/08/16 08:32:50;;;;;;;;;2.75;1.50;;;;;20.65;67.05;101218.72;5061923;28;45340;-57
2021/08/16 08:35:15;;;;;;;;;1.50;1.00;;;;;20.68;66.93;101218.50;5062542;28;45492;-57
2021/08/16 08:37:41;;;;;;;;;2.75;2.75;;;;;20.61;67.31;101223.31;5062181;28;45423;-58
2021/08/16 08:40:07;;;;;;;;;1.75;0.75;;;;;20.54;67.58;101223.78;5061706;28;45396;-57
2021/08/16 08:42:32;;;;;;;;;3.75;3.00;;;;;20.54;67.47;101226.44;5062080;28;45311;-58
2021/08/16 08:44:58;;;;;;;;;2.50;0.75;;;;;20.61;67.25;101222.44;5061334;28;45353;-57
2021/08/16 08:47:23;;;;;;;;;1.25;1.25;;;;;20.64;67.33;101228.44;5061699;28;45256;-57
2021/08/16 08:49:48;;;;;;;;;11.00;6.00;;;;;20.65;67.91;101229.28;5062647;28;45250;-58
2021/08/16 08:52:14;;;;;;;;;5.50;2.00;;;;;20.65;69.21;101226.63;5061666;28;45321;-58
2021/08/16 08:54:39;;;;;;;;;4.75;2.00;;;;;20.78;68.59;101230.19;5060795;28;45323;-57
2021/08/16 08:57:16;;;;;;;;;3.25;2.00;;;;;20.95;68.17;101237.06;5062038;28;45407;-58
2021/08/16 08:59:41;;;;;;;;;2.75;1.75;;;;;21.06;66.86;101233.75;5060225;28;45524;-57
2021/08/16 09:02:07;;;;;;;;;1.25;1.00;;;;;21.19;66.32;101237.28;5057397;28;45294;-57
2021/08/16 09:04:33;;;;;;;;;5.75;4.00;;;;;21.34;65.85;101232.88;5053107;28;45314;-57
2021/08/16 09:06:59;;;;;;;;;3.00;3.00;;;;;21.35;65.67;101243.34;5053721;28;45461;-56
2021/08/16 09:09:25;;;;;;;;;4.00;1.25;;;;;21.15;67.42;101241.09;5052852;28;45220;-56
2021/08/16 09:11:52;;;;;;;;;4.00;2.00;;;;;20.98;68.33;101252.72;5056665;28;46270;-56
2021/08/16 09:14:19;;;;;;;;;7.00;3.00;;;;;20.85;70.49;101247.38;5052300;28;45449;-57
2021/08/16 09:16:46;;;;;;;;;2.00;2.00;;;;;20.76;71.35;101255.84;5053223;28;45458;-56
2021/08/16 09:19:19;;;;;;;;;4.00;3.00;;;;;20.64;73.83;101261.91;5059186;28;45362;-57
2021/08/16 09:21:53;;;;;;;;;2.75;2.75;;;;;20.64;73.85;101267.19;5061574;28;46336;-57
2021/08/16 09:24:23;;;;;;;;;3.25;3.00;;;;;20.75;74.71;101263.88;5061355;28;45385;-58
2021/08/16 09:26:49;;;;;;;;;5.00;3.25;;;;;20.95;74.99;101258.19;5058861;28;45646;-58
2021/08/16 09:29:17;;;;;;;;;5.00;3.50;;;;;21.12;74.60;101265.06;5052920;28;45271;-57
2021/08/16 09:32:03;;;;;;;;;3.50;3.00;;;;;21.21;74.43;101267.13;5053209;28;46628;-58
2021/08/16 09:34:40;;;;;;;;;2.75;2.75;;;;;21.32;74.60;101267.34;5052405;28;45766;-57
2021/08/16 09:37:32;;;;;;;;;1.25;1.25;;;;;21.47;73.81;101271.66;5052672;28;45308;-58
2021/08/16 09:40:07;;;;;;;;;3.00;3.00;;;;;21.63;73.06;101263.56;5051284;27;45478;-58
2021/08/16 09:42:52;;;;;;;;;2.00;1.00;;;;;21.83;72.74;101270.19;5053415;28;46216;-57
2021/08/16 09:45:37;;;;;;;;;2.25;2.25;;;;;21.93;71.52;101273.06;5053136;28;45425;-58
2021/08/16 09:48:06;;;;;;;;;3.75;2.00;;;;;21.90;71.11;101274.13;5052985;28;45396;-58
2021/08/16 09:50:46;;;;;;;;;3.00;3.00;;;;;21.91;71.07;101269.69;5053056;28;45314;-58
2021/08/16 09:53:15;;;;;;;;;3.75;2.00;;;;;21.96;70.13;101276.34;5054855;28;46327;-57
2021/08/16 09:55:44;;;;;;;;;4.25;4.00;;;;;22.15;70.25;101265.41;5049928;28;45441;-58
2021/08/16 09:58:14;;;;;;;;;5.00;3.00;;;;;22.60;70.77;101273.81;5050951;28;45291;-57
2021/08/16 10:00:41;;;;;;;;;2.00;2.00;;;;;22.85;66.24;101267.69;5050752;28;45565;-58
2021/08/16 10:03:08;;;;;;;;;3.00;3.00;;;;;22.94;65.08;101270.53;5051585;28;45441;-57
2021/08/16 10:05:39;;;;;;;;;1.50;1.50;;;;;22.92;63.44;101274.25;5050613;28;45372;-58
2021/08/16 10:08:07;;;;;;;;;3.50;2.50;;;;;22.60;64.58;101257.91;5050648;28;45313;-58
2021/08/16 10:10:34;;;;;;;;;4.00;3.00;;;;;22.45;66.79;101276.59;5052088;28;45285;-57
2021/08/16 10:13:01;;;;;;;;;3.25;2.00;;;;;22.21;67.42;101285.31;5051006;28;46151;-58
2021/08/16 10:15:28;;;;;;;;;3.50;2.75;;;;;22.10;67.84;101292.22;5049731;28;45323;-51
2021/08/16 10:17:53;;;;;;;;;2.25;2.00;;;;;22.09;67.28;101290.50;5051756;28;45540;-52
2021/08/16 10:20:19;;;;;;;;;4.25;2.75;;;;;22.12;67.29;101298.25;5049951;28;45403;-57
2021/08/16 10:22:45;;;;;;;;;2.00;2.00;;;;;22.19;65.80;101305.75;5051512;28;45490;-57
2021/08/16 10:25:19;;;;;;;;;2.00;0.25;;;;;22.19;64.21;101296.03;5049341;28;45498;-56
2021/08/16 10:27:45;;;;;;;;;3.00;3.00;;;;;22.20;65.41;101300.38;5051390;28;45334;-57
2021/08/16 10:30:14;;;;;;;;;2.00;2.00;;;;;22.33;64.74;101308.34;5054240;28;45454;-57
2021/08/16 10:32:40;;;;;;;;;4.00;4.00;;;;;22.59;64.62;101296.81;5050136;28;46419;-58
2021/08/16 10:35:18;;;;;;;;;4.50;3.00;;;;;22.90;62.14;101308.81;5049338;28;45257;-57
2021/08/16 10:37:45;;;;;;;;;4.50;3.50;;;;;22.99;60.90;101310.81;5050761;28;45414;-58
2021/08/16 10:40:26;;;;;;;;;2.75;1.00;;;;;22.90;60.02;101306.16;5050208;28;45315;-57
2021/08/16 10:42:54;;;;;;;;;3.00;2.00;;;;;22.71;58.39;101306.56;5046427;28;46526;-57
2021/08/16 10:45:31;;;;;;;;;3.25;3.00;;;;;22.54;56.94;101317.47;5046497;28;45391;-57
2021/08/16 10:48:03;;;;;;;;;3.00;2.00;;;;;22.49;56.83;101324.03;5049788;28;45387;-57
2021/08/16 10:50:28;;;;;;;;;5.50;3.00;;;;;22.46;56.82;101327.75;5051617;28;45327;-56
2021/08/16 10:53:05;;;;;;;;;2.00;2.00;;;;;22.44;56.45;101327.88;5050531;28;46173;-57
2021/08/16 10:55:38;;;;;;;;;3.50;2.75;;;;;22.38;55.88;101332.69;5054829;28;45400;-57
2021/08/16 10:58:10;;;;;;;;;4.00;3.00;;;;;22.07;54.46;101333.91;5052686;28;45406;-58
2021/08/16 11:00:41;;;;;;;;;4.25;3.75;;;;;22.11;54.91;101343.34;5049709;28;45360;-58
2021/08/16 11:03:07;;;;;;;;;7.25;2.75;;;;;22.12;55.55;101337.94;5056343;28;46101;-58
2021/08/16 11:05:38;;;;;;;;;4.00;4.00;;;;;22.26;55.87;101349.44;5050556;28;45307;-58
2021/08/16 11:08:05;;;;;;;;;6.75;5.75;;;;;22.45;55.11;101350.75;5052477;28;45494;-58
2021/08/16 11:10:47;;;;;;;;;3.75;2.00;;;;;22.51;53.10;101359.22;5053834;28;45450;-58
2021/08/16 11:13:18;;;;;;;;;3.75;3.00;;;;;22.41;51.30;101372.22;5058617;28;46080;-58
2021/08/16 11:15:45;;;;;;;;;6.50;6.50;;;;;22.47;50.94;101361.25;5058376;28;45642;-59
2021/08/16 11:18:18;;;;;;;;;4.00;3.50;;;;;22.48;50.42;101364.72;5057937;28;45164;-58
2021/08/16 11:20:46;;;;;;;;;7.25;6.00;;;;;22.64;50.47;101368.91;5050037;28;45463;-58